createdAt,value
2017-09-02T00:00:35.360Z,43.17
2017-09-02T00:03:03.837Z,42.20
2017-09-02T00:05:32.181Z,39.53
2017-09-02T00:08:01.201Z,37.50
2017-09-02T00:10:29.659Z,38.20
2017-09-02T00:12:58.984Z,41.10
2017-09-02T00:15:27.343Z,45.70
2017-09-02T00:17:55.729Z,44.03
2017-09-02T00:20:24.078Z,43.73
2017-09-02T00:22:52.480Z,40.50
2017-09-02T00:25:20.838Z,42.90
2017-09-02T00:27:49.194Z,42.80
2017-09-02T00:30:17.559Z,43.07
2017-09-02T00:32:45.925Z,43.20
2017-09-02T00:35:14.305Z,42.00
2017-09-02T00:37:42.668Z,45.77
2017-09-02T00:40:11.079Z,42.00
2017-09-02T00:42:39.389Z,47.87
2017-09-02T00:45:07.764Z,45.00
2017-09-02T00:47:36.121Z,42.87
2017-09-02T00:50:04.520Z,40.07
2017-09-02T00:52:33.096Z,41.53
2017-09-02T00:55:01.447Z,40.53
2017-09-02T00:57:29.849Z,41.07
2017-09-02T00:59:58.446Z,46.73
2017-09-02T01:02:27.559Z,45.30
2017-09-02T01:04:55.918Z,42.80
2017-09-02T01:07:24.478Z,46.53
2017-09-02T01:09:52.958Z,44.10
2017-09-02T01:12:21.585Z,41.60
2017-09-02T01:14:49.950Z,44.63
2017-09-02T01:17:18.322Z,48.10
2017-09-02T01:19:46.687Z,41.17
2017-09-02T01:22:15.082Z,45.57
2017-09-02T01:24:43.453Z,42.50
2017-09-02T01:27:11.997Z,45.80
2017-09-02T01:29:40.387Z,48.33
2017-09-02T01:32:08.982Z,47.63
2017-09-02T01:34:37.537Z,43.13
2017-09-02T01:37:05.909Z,43.23
2017-09-02T01:39:34.266Z,42.17
2017-09-02T01:42:02.675Z,42.13
2017-09-02T01:44:31.047Z,45.00
2017-09-02T01:46:59.409Z,44.20
2017-09-02T01:49:27.800Z,46.63
2017-09-02T01:51:56.159Z,44.40
2017-09-02T01:54:24.644Z,46.83
2017-09-02T01:56:53.000Z,46.63
2017-09-02T01:59:21.395Z,45.60
2017-09-02T02:01:49.750Z,46.83
2017-09-02T02:04:18.123Z,48.33
2017-09-02T02:06:47.446Z,51.53
2017-09-02T02:09:15.801Z,53.00
2017-09-02T02:11:44.180Z,48.00
2017-09-02T02:14:12.554Z,47.77
2017-09-02T02:16:41.050Z,51.27
2017-09-02T02:19:09.413Z,48.07
2017-09-02T02:21:38.536Z,48.87
2017-09-02T02:24:07.102Z,60.07
2017-09-02T02:26:35.477Z,49.30
2017-09-02T02:29:03.822Z,49.80
2017-09-02T02:31:32.178Z,52.93
2017-09-02T02:34:01.226Z,50.93
2017-09-02T02:36:29.581Z,53.33
2017-09-02T02:38:58.073Z,49.13
2017-09-02T02:41:27.191Z,50.10
2017-09-02T02:43:55.747Z,49.07
2017-09-02T02:46:24.098Z,48.40
2017-09-02T02:48:53.422Z,54.10
2017-09-02T02:51:21.787Z,48.97
2017-09-02T02:53:50.158Z,52.83
2017-09-02T02:56:18.550Z,50.57
2017-09-02T02:58:46.982Z,49.97
2017-09-02T03:01:15.348Z,49.27
2017-09-02T03:03:43.912Z,47.23
2017-09-02T03:06:12.261Z,45.93
2017-09-02T03:08:40.622Z,47.00
2017-09-02T03:11:08.985Z,44.90
2017-09-02T03:13:37.384Z,47.40
2017-09-02T03:16:05.733Z,49.50
2017-09-02T03:18:34.094Z,45.97
2017-09-02T03:21:02.511Z,45.80
2017-09-02T03:23:30.873Z,45.10
2017-09-02T03:25:59.218Z,43.37
2017-09-02T03:28:27.570Z,46.80
2017-09-02T03:30:55.934Z,47.70
2017-09-02T03:33:24.517Z,45.00
2017-09-02T03:35:52.974Z,44.03
2017-09-02T03:38:21.333Z,46.73
2017-09-02T03:40:49.692Z,46.10
2017-09-02T03:43:18.818Z,41.20
2017-09-02T03:45:47.173Z,38.80
2017-09-02T03:48:15.775Z,41.73
2017-09-02T03:50:44.127Z,46.93
2017-09-02T03:53:12.674Z,42.40
2017-09-02T03:55:41.212Z,40.60
2017-09-02T03:58:09.891Z,43.47
2017-09-02T04:00:38.241Z,41.70
2017-09-02T04:03:06.735Z,40.73
2017-09-02T04:05:35.119Z,43.07
2017-09-02T04:08:03.472Z,41.57
2017-09-02T04:10:31.819Z,43.47
2017-09-02T04:13:00.176Z,44.43
2017-09-02T04:15:28.359Z,41.13
2017-09-02T04:17:56.712Z,44.07
2017-09-02T04:20:25.188Z,42.87
2017-09-02T04:22:53.771Z,42.80
2017-09-02T04:25:22.144Z,49.27
2017-09-02T04:27:50.509Z,43.50
2017-09-02T04:30:18.866Z,44.40
2017-09-02T04:32:47.268Z,47.53
2017-09-02T04:35:15.734Z,44.63
2017-09-02T04:37:44.086Z,46.80
2017-09-02T04:40:12.448Z,43.47
2017-09-02T04:42:41.782Z,45.60
2017-09-02T04:45:10.141Z,45.57
2017-09-02T04:47:38.589Z,43.07
2017-09-02T04:50:07.831Z,41.47
2017-09-02T04:52:36.184Z,38.80
2017-09-02T04:55:04.552Z,42.53
2017-09-02T04:57:33.714Z,43.77
2017-09-02T05:00:02.074Z,43.97
2017-09-02T05:02:30.431Z,42.23
2017-09-02T05:04:58.999Z,41.27
2017-09-02T05:07:27.393Z,39.83
2017-09-02T05:09:55.999Z,38.53
2017-09-02T05:12:24.352Z,39.67
2017-09-02T05:14:52.820Z,39.20
2017-09-02T05:17:21.259Z,37.10
2017-09-02T05:19:49.427Z,43.47
2017-09-02T05:22:17.795Z,39.10
2017-09-02T05:24:46.690Z,37.70
2017-09-02T05:27:15.046Z,36.70
2017-09-02T05:29:43.438Z,35.60
2017-09-02T05:32:11.810Z,38.77
2017-09-02T05:34:40.172Z,33.93
2017-09-02T05:37:08.816Z,38.50
2017-09-02T05:39:37.192Z,37.90
2017-09-02T05:42:05.550Z,37.20
2017-09-02T05:44:33.902Z,38.80
2017-09-02T05:47:03.181Z,39.23
2017-09-02T05:49:31.538Z,34.77
2017-09-02T05:51:59.893Z,36.20
2017-09-02T05:54:28.369Z,37.27
2017-09-02T05:56:56.972Z,33.93
2017-09-02T05:59:25.325Z,39.90
2017-09-02T06:01:53.503Z,34.17
2017-09-02T06:04:21.884Z,33.50
2017-09-02T06:06:50.233Z,34.33
2017-09-02T06:09:18.610Z,35.30
2017-09-02T06:11:46.968Z,35.47
2017-09-02T06:14:16.108Z,35.20
2017-09-02T06:16:44.475Z,34.67
2017-09-02T06:19:12.712Z,37.33
2017-09-02T06:21:41.843Z,35.77
2017-09-02T06:24:10.344Z,37.10
2017-09-02T06:26:38.731Z,37.60
2017-09-02T06:29:07.094Z,39.67
2017-09-02T06:31:35.446Z,36.20
2017-09-02T06:34:03.818Z,39.13
2017-09-02T06:36:32.445Z,37.63
2017-09-02T06:39:00.818Z,41.87
2017-09-02T06:41:29.357Z,43.03
2017-09-02T06:43:57.719Z,40.07
2017-09-02T06:46:26.313Z,40.50
2017-09-02T06:48:54.790Z,38.50
2017-09-02T06:51:23.370Z,40.83
2017-09-02T06:53:51.733Z,36.77
2017-09-02T06:56:20.357Z,39.03
2017-09-02T06:58:48.748Z,37.40
2017-09-02T07:01:17.283Z,42.13
2017-09-02T07:03:45.879Z,41.20
2017-09-02T07:06:14.362Z,40.53
2017-09-02T07:08:42.714Z,42.83
2017-09-02T07:11:11.080Z,45.03
2017-09-02T07:13:39.434Z,45.53
2017-09-02T07:16:07.823Z,43.37
2017-09-02T07:18:36.182Z,41.13
2017-09-02T07:21:05.124Z,40.80
2017-09-02T07:23:33.590Z,39.83
2017-09-02T07:26:02.157Z,42.00
2017-09-02T07:28:30.526Z,41.87
2017-09-02T07:30:59.517Z,41.57
2017-09-02T07:33:28.007Z,40.03
2017-09-02T07:35:56.377Z,41.00
2017-09-02T07:38:24.822Z,43.40
2017-09-02T07:40:53.190Z,40.00
2017-09-02T07:43:21.551Z,45.13
2017-09-02T07:45:50.487Z,39.73
2017-09-02T07:48:18.858Z,43.93
2017-09-02T07:50:47.520Z,42.93
2017-09-02T07:53:15.692Z,41.87
2017-09-02T07:55:44.243Z,39.43
2017-09-02T07:58:12.614Z,43.37
2017-09-02T08:00:40.976Z,38.10
2017-09-02T08:03:09.236Z,40.33
2017-09-02T08:05:37.511Z,40.77
2017-09-02T08:08:05.682Z,41.37
2017-09-02T08:10:33.877Z,38.70
2017-09-02T08:13:02.139Z,37.40
2017-09-02T08:15:30.506Z,37.50
2017-09-02T08:17:59.638Z,42.13
2017-09-02T08:20:28.001Z,29.50
2017-09-02T08:22:56.368Z,32.90
2017-09-02T08:25:24.721Z,34.10
2017-09-02T08:27:53.096Z,35.37
2017-09-02T08:30:21.455Z,32.63
2017-09-02T08:32:49.813Z,33.73
2017-09-02T08:35:18.183Z,32.60
2017-09-02T08:37:46.560Z,36.33
2017-09-02T08:40:14.930Z,32.10
2017-09-02T08:42:43.286Z,36.83
2017-09-02T08:45:11.831Z,35.57
2017-09-02T08:47:40.205Z,33.60
2017-09-02T08:50:08.564Z,31.33
2017-09-02T08:52:37.023Z,34.37
2017-09-02T08:55:05.386Z,33.10
2017-09-02T08:57:33.757Z,31.50
2017-09-02T09:00:02.118Z,31.83
2017-09-02T09:02:30.563Z,33.63
2017-09-02T09:04:59.198Z,33.37
2017-09-02T09:07:27.638Z,34.83
2017-09-02T09:09:55.981Z,34.37
2017-09-02T09:12:24.354Z,35.20
2017-09-02T09:14:53.315Z,35.37
2017-09-02T09:17:21.950Z,36.60
2017-09-02T09:19:50.321Z,36.47
2017-09-02T09:22:18.696Z,31.97
2017-09-02T09:24:47.048Z,32.80
2017-09-02T09:27:16.166Z,29.50
2017-09-02T09:29:44.552Z,31.17
2017-09-02T09:32:12.928Z,26.27
2017-09-02T09:34:41.300Z,28.77
2017-09-02T09:37:09.670Z,28.30
2017-09-02T09:39:38.048Z,30.30
2017-09-02T09:42:06.414Z,24.43
2017-09-02T09:44:34.794Z,23.90
2017-09-02T09:47:03.172Z,21.73
2017-09-02T09:49:31.536Z,23.10
2017-09-02T09:51:59.924Z,24.53
2017-09-02T09:54:28.275Z,21.50
2017-09-02T09:56:56.648Z,23.80
2017-09-02T09:59:25.780Z,22.53
2017-09-02T10:01:54.554Z,20.53
2017-09-02T10:04:23.129Z,20.40
2017-09-02T10:06:51.611Z,19.70
2017-09-02T10:09:19.981Z,21.07
2017-09-02T10:11:48.340Z,20.23
2017-09-02T10:14:16.695Z,18.17
2017-09-02T10:16:45.053Z,19.70
2017-09-02T10:19:13.493Z,21.40
2017-09-02T10:21:41.847Z,19.67
2017-09-02T10:24:10.210Z,18.10
2017-09-02T10:26:39.540Z,19.10
2017-09-02T10:29:08.017Z,17.10
2017-09-02T10:31:36.597Z,24.27
2017-09-02T10:34:04.776Z,22.10
2017-09-02T10:36:33.149Z,20.03
2017-09-02T10:39:02.271Z,19.30
2017-09-02T10:41:30.715Z,17.43
2017-09-02T10:43:59.154Z,15.90
2017-09-02T10:46:27.515Z,18.90
2017-09-02T10:48:55.883Z,20.33
2017-09-02T10:51:24.247Z,16.23
2017-09-02T10:53:52.609Z,20.10
2017-09-02T10:56:21.279Z,16.33
2017-09-02T10:58:49.732Z,14.37
2017-09-02T11:01:18.095Z,18.87
2017-09-02T11:03:47.231Z,18.70
2017-09-02T11:06:15.269Z,18.43
2017-09-02T11:08:43.670Z,16.80
2017-09-02T11:11:12.023Z,21.73
2017-09-02T11:13:40.400Z,17.03
2017-09-02T11:16:08.764Z,20.53
2017-09-02T11:18:37.131Z,20.53
2017-09-02T11:21:05.508Z,16.90
2017-09-02T11:23:33.868Z,16.03
2017-09-02T11:26:02.237Z,15.20
2017-09-02T11:28:30.602Z,15.60
2017-09-02T11:30:58.990Z,16.47
2017-09-02T11:33:27.490Z,23.00
2017-09-02T11:35:55.848Z,14.37
2017-09-02T11:38:24.246Z,13.93
2017-09-02T11:40:52.598Z,13.10
2017-09-02T11:43:20.950Z,13.10
2017-09-02T11:45:49.342Z,14.20
2017-09-02T11:48:17.723Z,12.83
2017-09-02T11:50:46.261Z,12.70
2017-09-02T11:53:14.643Z,13.53
2017-09-02T11:55:43.118Z,11.33
2017-09-02T11:58:11.473Z,9.23
2017-09-02T12:00:39.835Z,13.00
2017-09-02T12:03:08.976Z,13.43
2017-09-02T12:05:37.354Z,12.07
2017-09-02T12:08:05.730Z,12.63
2017-09-02T12:10:34.300Z,12.13
2017-09-02T12:13:02.694Z,12.97
2017-09-02T12:15:31.053Z,11.63
2017-09-02T12:17:59.406Z,9.57
2017-09-02T12:20:27.795Z,9.83
2017-09-02T12:22:56.171Z,10.40
2017-09-02T12:25:24.650Z,12.57
2017-09-02T12:27:53.011Z,13.20
2017-09-02T12:30:21.388Z,17.80
2017-09-02T12:32:49.744Z,11.87
2017-09-02T12:35:18.858Z,8.57
2017-09-02T12:37:47.221Z,7.10
2017-09-02T12:40:15.565Z,10.83
2017-09-02T12:42:43.917Z,6.10
2017-09-02T12:45:12.113Z,5.57
2017-09-02T12:47:40.546Z,7.27
2017-09-02T12:50:08.984Z,6.10
2017-09-02T12:52:37.357Z,8.70
2017-09-02T12:55:05.703Z,10.17
2017-09-02T12:57:34.873Z,10.10
2017-09-02T13:00:03.352Z,6.23
2017-09-02T13:02:31.707Z,12.33
2017-09-02T13:05:00.099Z,6.90
2017-09-02T13:07:28.685Z,10.37
2017-09-02T13:09:57.039Z,6.63
2017-09-02T13:12:25.405Z,9.10
2017-09-02T13:14:53.756Z,5.80
2017-09-02T13:17:22.145Z,6.27
2017-09-02T13:19:50.522Z,7.33
2017-09-02T13:22:18.878Z,5.57
2017-09-02T13:24:47.233Z,6.13
2017-09-02T13:27:15.581Z,4.83
2017-09-02T13:29:43.966Z,6.50
2017-09-02T13:32:12.332Z,6.13
2017-09-02T13:34:40.680Z,7.60
2017-09-02T13:37:09.041Z,6.33
2017-09-02T13:39:37.461Z,5.10
2017-09-02T13:42:05.804Z,6.17
2017-09-02T13:44:34.167Z,5.90
2017-09-02T13:47:02.520Z,4.40
2017-09-02T13:49:31.086Z,6.20
2017-09-02T13:51:59.442Z,5.07
2017-09-02T13:54:27.788Z,4.50
2017-09-02T13:56:56.145Z,4.67
2017-09-02T13:59:24.569Z,3.30
2017-09-02T14:01:52.919Z,7.33
2017-09-02T14:04:21.285Z,4.20
2017-09-02T14:06:49.696Z,4.33
2017-09-02T14:09:17.850Z,3.60
2017-09-02T14:11:46.025Z,5.77
2017-09-02T14:14:14.213Z,5.00
2017-09-02T14:16:42.585Z,4.70
2017-09-02T14:19:11.014Z,5.20
2017-09-02T14:21:39.366Z,3.93
2017-09-02T14:24:07.732Z,5.07
2017-09-02T14:26:36.302Z,4.63
2017-09-02T14:29:04.637Z,4.50
2017-09-02T14:31:33.003Z,4.77
2017-09-02T14:34:01.529Z,5.90
2017-09-02T14:36:29.902Z,7.70
2017-09-02T14:38:58.251Z,4.87
2017-09-02T14:41:26.611Z,5.37
2017-09-02T14:43:55.030Z,7.00
2017-09-02T14:46:23.635Z,4.97
2017-09-02T14:48:52.085Z,5.47
2017-09-02T14:51:20.461Z,5.87
2017-09-02T14:53:48.819Z,5.73
2017-09-02T14:56:17.266Z,5.30
2017-09-02T14:58:46.263Z,6.27
2017-09-02T15:01:14.622Z,6.20
2017-09-02T15:03:42.997Z,13.33
2017-09-02T15:06:11.638Z,8.33
2017-09-02T15:08:40.014Z,6.80
2017-09-02T15:11:08.368Z,7.10
2017-09-02T15:13:36.732Z,10.87
2017-09-02T15:16:05.858Z,6.57
2017-09-02T15:18:34.230Z,6.87
2017-09-02T15:21:02.742Z,8.20
2017-09-02T15:23:31.128Z,7.83
2017-09-02T15:25:59.494Z,10.07
2017-09-02T15:28:27.843Z,12.17
2017-09-02T15:30:56.218Z,12.17
2017-09-02T15:33:24.691Z,9.93
2017-09-02T15:35:53.215Z,19.53
2017-09-02T15:38:21.756Z,11.27
2017-09-02T15:40:50.158Z,9.60
2017-09-02T15:43:18.538Z,11.50
2017-09-02T15:45:46.906Z,11.80
2017-09-02T15:48:15.356Z,14.10
2017-09-02T15:50:43.720Z,12.13
2017-09-02T15:53:12.066Z,11.70
2017-09-02T15:55:40.629Z,14.70
2017-09-02T15:58:08.991Z,12.37
2017-09-02T16:00:37.005Z,13.10
2017-09-02T16:03:06.497Z,12.20
2017-09-02T16:05:34.852Z,11.00
2017-09-02T16:08:03.221Z,10.63
2017-09-02T16:10:31.405Z,8.90
2017-09-02T16:12:59.773Z,9.60
2017-09-02T16:15:28.123Z,11.53
2017-09-02T16:17:56.549Z,11.10
2017-09-02T16:20:24.958Z,9.03
2017-09-02T16:22:53.338Z,10.60
2017-09-02T16:25:21.695Z,10.50
2017-09-02T16:27:50.334Z,10.50
2017-09-02T16:30:18.705Z,9.77
2017-09-02T16:32:47.075Z,11.13
2017-09-02T16:35:15.650Z,10.20
2017-09-02T16:37:44.104Z,10.40
2017-09-02T16:40:12.490Z,11.83
2017-09-02T16:42:40.841Z,11.27
2017-09-02T16:45:09.195Z,8.73
2017-09-02T16:47:38.149Z,10.47
2017-09-02T16:50:06.323Z,8.43
2017-09-02T16:52:34.487Z,8.47
2017-09-02T16:55:02.664Z,9.00
2017-09-02T16:57:31.061Z,8.77
2017-09-02T16:59:59.227Z,8.90
2017-09-02T17:02:27.664Z,9.83
2017-09-02T17:04:57.831Z,9.17
2017-09-02T17:07:26.027Z,9.20
2017-09-02T17:09:54.218Z,10.87
2017-09-02T17:12:22.389Z,10.60
2017-09-02T17:14:50.566Z,10.87
2017-09-02T17:17:18.887Z,11.03
2017-09-02T17:19:47.060Z,11.40
2017-09-02T17:22:15.241Z,10.07
2017-09-02T17:24:43.549Z,10.43
2017-09-02T17:27:11.723Z,11.50
2017-09-02T17:29:39.908Z,12.27
2017-09-02T17:32:08.278Z,10.80
2017-09-02T17:34:36.642Z,10.30
2017-09-02T17:37:05.122Z,10.53
2017-09-02T17:39:33.508Z,13.93
2017-09-02T17:42:01.883Z,13.80
2017-09-02T17:44:30.275Z,16.00
2017-09-02T17:46:58.643Z,11.97
2017-09-02T17:49:27.002Z,10.70
2017-09-02T17:51:55.067Z,11.10
2017-09-02T17:54:23.426Z,11.83
2017-09-02T17:56:51.886Z,11.77
2017-09-02T17:59:20.251Z,12.33
2017-09-02T18:01:48.611Z,12.43
2017-09-02T18:04:16.991Z,10.73
2017-09-02T18:06:45.363Z,10.77
2017-09-02T18:09:13.736Z,14.03
2017-09-02T18:11:41.918Z,14.70
2017-09-02T18:14:10.285Z,15.23
2017-09-02T18:16:38.643Z,14.10
2017-09-02T18:19:07.023Z,14.87
2017-09-02T18:21:35.378Z,13.23
2017-09-02T18:24:03.776Z,13.17
2017-09-02T18:26:32.165Z,11.93
2017-09-02T18:29:00.543Z,14.17
2017-09-02T18:31:28.906Z,13.20
2017-09-02T18:33:57.258Z,15.23
2017-09-02T18:36:25.631Z,11.90
2017-09-02T18:38:54.006Z,12.33
2017-09-02T18:41:22.187Z,12.77
2017-09-02T18:43:50.570Z,13.43
2017-09-02T18:46:18.947Z,15.90
2017-09-02T18:48:47.134Z,12.83
2017-09-02T18:51:15.324Z,13.00
2017-09-02T18:53:43.498Z,15.20
2017-09-02T18:56:11.883Z,14.53
2017-09-02T18:58:40.270Z,14.53
2017-09-02T19:01:08.648Z,15.40
2017-09-02T19:03:37.024Z,14.93
2017-09-02T19:06:06.159Z,15.90
2017-09-02T19:08:34.672Z,12.80
2017-09-02T19:11:03.026Z,14.30
2017-09-02T19:13:31.406Z,11.90
2017-09-02T19:15:59.808Z,13.60
2017-09-02T19:18:28.444Z,17.10
2017-09-02T19:20:56.802Z,13.13
2017-09-02T19:23:25.282Z,14.70
2017-09-02T19:25:53.884Z,14.00
2017-09-02T19:28:22.249Z,15.37
2017-09-02T19:30:50.714Z,14.70
2017-09-02T19:33:19.090Z,15.17
2017-09-02T19:35:47.460Z,13.93
2017-09-02T19:38:15.827Z,16.47
2017-09-02T19:40:44.189Z,15.60
2017-09-02T19:43:13.326Z,15.17
2017-09-02T19:45:41.698Z,15.80
2017-09-02T19:48:11.056Z,15.53
2017-09-02T19:50:39.423Z,18.00
2017-09-02T19:53:07.802Z,17.77
2017-09-02T19:55:36.185Z,17.67
2017-09-02T19:58:04.567Z,18.27
2017-09-02T20:00:32.965Z,19.10
2017-09-02T20:03:01.317Z,16.33
2017-09-02T20:05:29.701Z,16.90
2017-09-02T20:07:58.183Z,17.53
2017-09-02T20:10:26.376Z,16.60
2017-09-02T20:12:57.589Z,16.60
2017-09-02T20:15:25.972Z,15.87
2017-09-02T20:17:54.342Z,16.10
2017-09-02T20:20:22.845Z,15.53
2017-09-02T20:22:51.201Z,15.27
2017-09-02T20:25:19.902Z,13.77
2017-09-02T20:27:48.277Z,14.30
2017-09-02T20:30:17.395Z,13.70
2017-09-02T20:32:45.956Z,15.03
2017-09-02T20:35:14.432Z,15.87
2017-09-02T20:37:42.914Z,14.90
2017-09-02T20:40:11.309Z,13.73
2017-09-02T20:42:40.080Z,14.17
2017-09-02T20:45:08.445Z,13.93
2017-09-02T20:47:37.027Z,14.73
2017-09-02T20:50:05.433Z,14.90
2017-09-02T20:52:33.803Z,13.43
2017-09-02T20:55:02.163Z,14.77
2017-09-02T20:57:30.893Z,13.80
2017-09-02T20:59:59.310Z,13.90
2017-09-02T21:02:28.444Z,13.77
2017-09-02T21:04:56.996Z,14.53
2017-09-02T21:07:25.676Z,15.33
2017-09-02T21:09:54.119Z,14.10
2017-09-02T21:12:22.614Z,17.80
2017-09-02T21:14:51.106Z,15.07
2017-09-02T21:17:19.467Z,16.67
2017-09-02T21:19:47.874Z,18.20
2017-09-02T21:22:16.250Z,15.50
2017-09-02T21:24:44.611Z,15.10
2017-09-02T21:27:13.089Z,19.87
2017-09-02T21:29:41.438Z,18.83
2017-09-02T21:32:11.684Z,15.23
2017-09-02T21:34:40.802Z,16.00
2017-09-02T21:37:09.196Z,15.10
2017-09-02T21:39:37.567Z,16.03
2017-09-02T21:42:05.945Z,15.40
2017-09-02T21:44:34.353Z,16.53
2017-09-02T21:47:02.702Z,19.40
2017-09-02T21:49:31.084Z,20.73
2017-09-02T21:51:59.481Z,15.70
2017-09-02T21:54:27.853Z,15.27
2017-09-02T21:56:56.240Z,18.30
2017-09-02T21:59:24.608Z,16.47
2017-09-02T22:01:53.118Z,16.03
2017-09-02T22:04:21.480Z,17.20
2017-09-02T22:06:50.104Z,17.03
2017-09-02T22:09:18.552Z,15.57
2017-09-02T22:11:46.903Z,16.40
2017-09-02T22:14:15.313Z,18.80
2017-09-02T22:16:43.677Z,17.83
2017-09-02T22:19:12.042Z,17.17
2017-09-02T22:21:40.420Z,20.17
2017-09-02T22:24:08.800Z,16.67
2017-09-02T22:26:37.198Z,17.60
2017-09-02T22:29:05.566Z,18.40
2017-09-02T22:31:34.038Z,15.90
2017-09-02T22:34:02.399Z,18.57
2017-09-02T22:36:30.844Z,16.97
2017-09-02T22:38:59.210Z,17.63
2017-09-02T22:41:27.564Z,17.00
2017-09-02T22:43:55.923Z,17.40
2017-09-02T22:46:24.352Z,20.80
2017-09-02T22:48:52.735Z,19.90
2017-09-02T22:51:21.097Z,16.30
2017-09-02T22:53:49.461Z,17.00
2017-09-02T22:56:17.827Z,16.10
2017-09-02T22:58:45.664Z,17.53
2017-09-02T23:01:16.075Z,15.60
2017-09-02T23:03:44.428Z,15.93
2017-09-02T23:06:13.063Z,16.47
2017-09-02T23:08:41.427Z,16.90
2017-09-02T23:11:09.896Z,15.03
2017-09-02T23:13:38.261Z,15.53
2017-09-02T23:16:06.748Z,15.77
2017-09-02T23:18:35.135Z,15.70
2017-09-02T23:21:03.506Z,15.90
2017-09-02T23:23:31.862Z,17.07
2017-09-02T23:26:00.227Z,14.63
2017-09-02T23:28:28.599Z,15.30
2017-09-02T23:30:57.008Z,14.40
2017-09-02T23:33:25.369Z,16.63
2017-09-02T23:35:53.729Z,18.50
2017-09-02T23:38:22.135Z,16.40
2017-09-02T23:40:50.496Z,17.73
2017-09-02T23:43:18.868Z,18.13
2017-09-02T23:45:47.231Z,14.70
2017-09-02T23:48:15.634Z,15.00
2017-09-02T23:50:43.989Z,14.77
2017-09-02T23:53:12.360Z,16.67
2017-09-02T23:55:40.807Z,15.10
2017-09-02T23:58:09.349Z,15.67
